sensor_id;sensor_type;location;lat;lon;timestamp;temperature;humidity
32753;DHT22;19121;52.428;10.816;2022-09-30T00:01:36;20.20;51.90
32753;DHT22;19121;52.428;10.816;2022-09-30T00:04:04;20.20;51.90
32753;DHT22;19121;52.428;10.816;2022-09-30T00:06:31;20.20;51.90
32753;DHT22;19121;52.428;10.816;2022-09-30T00:08:57;20.20;51.90
32753;DHT22;19121;52.428;10.816;2022-09-30T00:11:27;20.20;51.90
32753;DHT22;19121;52.428;10.816;2022-09-30T00:13:54;20.20;51.90
32753;DHT22;19121;52.428;10.816;2022-09-30T00:16:21;20.20;52.00
32753;DHT22;19121;52.428;10.816;2022-09-30T00:18:47;20.20;52.00
32753;DHT22;19121;52.428;10.816;2022-09-30T00:21:14;20.20;51.90
32753;DHT22;19121;52.428;10.816;2022-09-30T00:23:40;20.20;52.00
32753;DHT22;19121;52.428;10.816;2022-09-30T00:26:14;20.20;52.00
32753;DHT22;19121;52.428;10.816;2022-09-30T00:28:41;20.20;51.90
32753;DHT22;19121;52.428;10.816;2022-09-30T00:31:10;20.20;51.90
32753;DHT22;19121;52.428;10.816;2022-09-30T00:33:36;20.20;51.90
32753;DHT22;19121;52.428;10.816;2022-09-30T00:36:02;20.10;51.90
32753;DHT22;19121;52.428;10.816;2022-09-30T00:38:28;20.10;51.90
32753;DHT22;19121;52.428;10.816;2022-09-30T00:40:53;20.10;51.90
32753;DHT22;19121;52.428;10.816;2022-09-30T00:43:46;20.10;52.50
32753;DHT22;19121;52.428;10.816;2022-09-30T00:46:35;20.10;51.90
32753;DHT22;19121;52.428;10.816;2022-09-30T00:49:10;20.10;51.90
32753;DHT22;19121;52.428;10.816;2022-09-30T00:51:50;20.10;51.90
32753;DHT22;19121;52.428;10.816;2022-09-30T00:54:23;20.10;51.90
32753;DHT22;19121;52.428;10.816;2022-09-30T00:56:53;20.10;51.90
32753;DHT22;19121;52.428;10.816;2022-09-30T00:59:26;20.10;51.90
32753;DHT22;19121;52.428;10.816;2022-09-30T01:01:53;20.10;51.80
32753;DHT22;19121;52.428;10.816;2022-09-30T01:04:23;20.00;51.80
32753;DHT22;19121;52.428;10.816;2022-09-30T01:06:50;20.00;51.80
32753;DHT22;19121;52.428;10.816;2022-09-30T01:09:16;20.00;51.80
32753;DHT22;19121;52.428;10.816;2022-09-30T01:11:41;20.00;51.80
32753;DHT22;19121;52.428;10.816;2022-09-30T01:14:13;20.10;51.80
32753;DHT22;19121;52.428;10.816;2022-09-30T01:17:07;20.00;51.80
32753;DHT22;19121;52.428;10.816;2022-09-30T01:25:17;20.00;51.80
32753;DHT22;19121;52.428;10.816;2022-09-30T01:28:00;20.00;51.80
32753;DHT22;19121;52.428;10.816;2022-09-30T01:36:28;20.00;51.80
32753;DHT22;19121;52.428;10.816;2022-09-30T01:42:17;20.00;51.80
32753;DHT22;19121;52.428;10.816;2022-09-30T01:45:09;20.00;51.80
32753;DHT22;19121;52.428;10.816;2022-09-30T01:50:58;19.90;51.80
32753;DHT22;19121;52.428;10.816;2022-09-30T01:53:49;19.90;51.80
32753;DHT22;19121;52.428;10.816;2022-09-30T01:56:33;19.90;51.80
32753;DHT22;19121;52.428;10.816;2022-09-30T01:59:06;19.90;51.80
32753;DHT22;19121;52.428;10.816;2022-09-30T02:01:49;19.90;51.80
32753;DHT22;19121;52.428;10.816;2022-09-30T02:04:30;19.90;51.80
32753;DHT22;19121;52.428;10.816;2022-09-30T02:07:00;19.90;51.80
32753;DHT22;19121;52.428;10.816;2022-09-30T02:09:37;19.90;51.80
32753;DHT22;19121;52.428;10.816;2022-09-30T02:12:06;19.90;51.80
32753;DHT22;19121;52.428;10.816;2022-09-30T02:14:52;19.90;51.80
32753;DHT22;19121;52.428;10.816;2022-09-30T02:17:24;19.80;51.70
32753;DHT22;19121;52.428;10.816;2022-09-30T02:19:58;19.80;51.80
32753;DHT22;19121;52.428;10.816;2022-09-30T02:22:35;19.90;51.80
32753;DHT22;19121;52.428;10.816;2022-09-30T02:25:18;19.90;51.80
32753;DHT22;19121;52.428;10.816;2022-09-30T02:27:51;19.80;51.70
32753;DHT22;19121;52.428;10.816;2022-09-30T02:30:18;19.80;51.80
32753;DHT22;19121;52.428;10.816;2022-09-30T02:32:57;19.80;51.80
32753;DHT22;19121;52.428;10.816;2022-09-30T02:35:36;19.80;51.70
32753;DHT22;19121;52.428;10.816;2022-09-30T02:38:08;19.80;51.80
32753;DHT22;19121;52.428;10.816;2022-09-30T02:40:41;19.80;51.80
32753;DHT22;19121;52.428;10.816;2022-09-30T02:43:09;19.80;51.80
32753;DHT22;19121;52.428;10.816;2022-09-30T02:45:45;19.80;51.80
32753;DHT22;19121;52.428;10.816;2022-09-30T02:48:41;19.80;51.80
32753;DHT22;19121;52.428;10.816;2022-09-30T02:51:21;19.80;51.70
32753;DHT22;19121;52.428;10.816;2022-09-30T02:54:06;19.80;51.80
32753;DHT22;19121;52.428;10.816;2022-09-30T02:56:56;19.80;51.80
32753;DHT22;19121;52.428;10.816;2022-09-30T02:59:25;19.80;51.80
32753;DHT22;19121;52.428;10.816;2022-09-30T03:01:50;19.80;51.80
32753;DHT22;19121;52.428;10.816;2022-09-30T03:04:22;19.80;51.80
32753;DHT22;19121;52.428;10.816;2022-09-30T03:06:49;19.80;51.80
32753;DHT22;19121;52.428;10.816;2022-09-30T03:09:15;19.70;51.70
32753;DHT22;19121;52.428;10.816;2022-09-30T03:11:41;19.70;51.70
32753;DHT22;19121;52.428;10.816;2022-09-30T03:14:23;19.70;51.80
32753;DHT22;19121;52.428;10.816;2022-09-30T03:17:16;19.70;51.70
32753;DHT22;19121;52.428;10.816;2022-09-30T03:25:12;19.70;51.80
32753;DHT22;19121;52.428;10.816;2022-09-30T03:28:16;19.70;51.80
32753;DHT22;19121;52.428;10.816;2022-09-30T03:31:04;19.70;51.80
32753;DHT22;19121;52.428;10.816;2022-09-30T03:33:51;19.70;51.80
32753;DHT22;19121;52.428;10.816;2022-09-30T03:36:49;19.70;51.80
32753;DHT22;19121;52.428;10.816;2022-09-30T03:39:24;19.70;51.80
32753;DHT22;19121;52.428;10.816;2022-09-30T03:42:09;19.70;51.80
32753;DHT22;19121;52.428;10.816;2022-09-30T03:44:50;19.60;51.80
32753;DHT22;19121;52.428;10.816;2022-09-30T03:47:20;19.70;51.80
32753;DHT22;19121;52.428;10.816;2022-09-30T03:49:50;19.60;51.80
32753;DHT22;19121;52.428;10.816;2022-09-30T03:52:16;19.60;51.80
32753;DHT22;19121;52.428;10.816;2022-09-30T03:54:49;19.60;51.80
32753;DHT22;19121;52.428;10.816;2022-09-30T03:57:16;19.60;51.70
32753;DHT22;19121;52.428;10.816;2022-09-30T03:59:41;19.60;51.70
32753;DHT22;19121;52.428;10.816;2022-09-30T04:02:07;19.60;51.70
32753;DHT22;19121;52.428;10.816;2022-09-30T04:04:34;19.60;51.70
32753;DHT22;19121;52.428;10.816;2022-09-30T04:07:00;19.60;51.70
32753;DHT22;19121;52.428;10.816;2022-09-30T04:09:25;19.60;51.70
32753;DHT22;19121;52.428;10.816;2022-09-30T04:11:51;19.60;51.70
32753;DHT22;19121;52.428;10.816;2022-09-30T04:14:17;19.60;51.70
32753;DHT22;19121;52.428;10.816;2022-09-30T04:16:42;19.60;51.70
32753;DHT22;19121;52.428;10.816;2022-09-30T04:19:08;19.60;51.80
32753;DHT22;19121;52.428;10.816;2022-09-30T04:21:33;19.60;51.80
32753;DHT22;19121;52.428;10.816;2022-09-30T04:23:58;19.60;51.80
32753;DHT22;19121;52.428;10.816;2022-09-30T04:26:24;19.60;51.70
32753;DHT22;19121;52.428;10.816;2022-09-30T04:28:50;19.60;51.80
32753;DHT22;19121;52.428;10.816;2022-09-30T04:31:16;19.60;51.80
32753;DHT22;19121;52.428;10.816;2022-09-30T04:33:45;19.60;51.80
32753;DHT22;19121;52.428;10.816;2022-09-30T04:36:11;19.60;52.40
32753;DHT22;19121;52.428;10.816;2022-09-30T04:38:36;19.60;51.70
32753;DHT22;19121;52.428;10.816;2022-09-30T04:41:03;19.60;51.70
32753;DHT22;19121;52.428;10.816;2022-09-30T04:43:30;19.60;51.80
32753;DHT22;19121;52.428;10.816;2022-09-30T04:45:55;19.50;51.70
32753;DHT22;19121;52.428;10.816;2022-09-30T04:48:22;19.50;51.70
32753;DHT22;19121;52.428;10.816;2022-09-30T04:50:49;19.50;51.70
32753;DHT22;19121;52.428;10.816;2022-09-30T04:53:16;19.60;51.70
32753;DHT22;19121;52.428;10.816;2022-09-30T04:55:42;19.50;51.70
32753;DHT22;19121;52.428;10.816;2022-09-30T04:58:08;19.50;51.70
32753;DHT22;19121;52.428;10.816;2022-09-30T05:00:33;19.60;51.80
32753;DHT22;19121;52.428;10.816;2022-09-30T05:02:59;19.50;51.70
32753;DHT22;19121;52.428;10.816;2022-09-30T05:05:24;19.50;51.70
32753;DHT22;19121;52.428;10.816;2022-09-30T05:07:50;19.50;51.70
32753;DHT22;19121;52.428;10.816;2022-09-30T05:10:15;19.50;51.70
32753;DHT22;19121;52.428;10.816;2022-09-30T05:12:41;19.50;51.70
32753;DHT22;19121;52.428;10.816;2022-09-30T05:15:07;19.50;51.70
32753;DHT22;19121;52.428;10.816;2022-09-30T05:17:32;19.50;51.70
32753;DHT22;19121;52.428;10.816;2022-09-30T05:19:58;19.50;51.60
32753;DHT22;19121;52.428;10.816;2022-09-30T05:22:24;19.50;51.70
32753;DHT22;19121;52.428;10.816;2022-09-30T05:24:50;19.40;51.60
32753;DHT22;19121;52.428;10.816;2022-09-30T05:27:17;19.50;51.70
32753;DHT22;19121;52.428;10.816;2022-09-30T05:29:43;19.50;51.70
32753;DHT22;19121;52.428;10.816;2022-09-30T05:32:09;19.50;51.70
32753;DHT22;19121;52.428;10.816;2022-09-30T05:34:34;19.50;51.70
32753;DHT22;19121;52.428;10.816;2022-09-30T05:37:01;19.50;51.70
32753;DHT22;19121;52.428;10.816;2022-09-30T05:39:26;19.40;51.70
32753;DHT22;19121;52.428;10.816;2022-09-30T05:41:52;19.50;51.70
32753;DHT22;19121;52.428;10.816;2022-09-30T05:44:20;19.40;51.50
32753;DHT22;19121;52.428;10.816;2022-09-30T05:46:45;19.40;50.90
32753;DHT22;19121;52.428;10.816;2022-09-30T05:49:11;19.40;51.20
32753;DHT22;19121;52.428;10.816;2022-09-30T05:51:36;19.50;51.90
32753;DHT22;19121;52.428;10.816;2022-09-30T05:54:02;19.50;52.30
32753;DHT22;19121;52.428;10.816;2022-09-30T05:56:27;19.50;52.10
32753;DHT22;19121;52.428;10.816;2022-09-30T05:58:53;19.50;52.00
32753;DHT22;19121;52.428;10.816;2022-09-30T06:01:18;19.60;51.90
32753;DHT22;19121;52.428;10.816;2022-09-30T06:03:44;19.70;52.00
32753;DHT22;19121;52.428;10.816;2022-09-30T06:06:11;19.70;51.80
32753;DHT22;19121;52.428;10.816;2022-09-30T06:08:37;19.80;52.10
32753;DHT22;19121;52.428;10.816;2022-09-30T06:11:07;19.80;51.90
32753;DHT22;19121;52.428;10.816;2022-09-30T06:13:36;19.90;51.80
32753;DHT22;19121;52.428;10.816;2022-09-30T06:16:01;19.90;51.50
32753;DHT22;19121;52.428;10.816;2022-09-30T06:18:28;20.00;51.60
32753;DHT22;19121;52.428;10.816;2022-09-30T06:21:00;20.00;51.40
32753;DHT22;19121;52.428;10.816;2022-09-30T06:23:27;20.10;51.30
32753;DHT22;19121;52.428;10.816;2022-09-30T06:25:53;20.20;51.10
32753;DHT22;19121;52.428;10.816;2022-09-30T06:28:19;20.20;51.00
32753;DHT22;19121;52.428;10.816;2022-09-30T06:30:45;20.30;50.80
32753;DHT22;19121;52.428;10.816;2022-09-30T06:33:11;20.40;51.10
32753;DHT22;19121;52.428;10.816;2022-09-30T06:35:37;20.40;51.20
32753;DHT22;19121;52.428;10.816;2022-09-30T06:38:06;20.50;51.30
32753;DHT22;19121;52.428;10.816;2022-09-30T06:40:32;20.50;51.50
32753;DHT22;19121;52.428;10.816;2022-09-30T06:42:58;20.60;51.60
32753;DHT22;19121;52.428;10.816;2022-09-30T06:45:25;20.60;51.60
32753;DHT22;19121;52.428;10.816;2022-09-30T06:47:55;20.70;51.20
32753;DHT22;19121;52.428;10.816;2022-09-30T06:50:21;20.70;51.10
32753;DHT22;19121;52.428;10.816;2022-09-30T06:52:46;20.70;51.00
32753;DHT22;19121;52.428;10.816;2022-09-30T06:55:12;20.80;50.90
32753;DHT22;19121;52.428;10.816;2022-09-30T06:57:39;20.80;50.70
32753;DHT22;19121;52.428;10.816;2022-09-30T07:00:05;20.90;50.70
32753;DHT22;19121;52.428;10.816;2022-09-30T07:02:31;20.90;50.50
32753;DHT22;19121;52.428;10.816;2022-09-30T07:04:58;21.00;50.40
32753;DHT22;19121;52.428;10.816;2022-09-30T07:07:24;21.00;50.20
32753;DHT22;19121;52.428;10.816;2022-09-30T07:09:50;21.10;50.80
32753;DHT22;19121;52.428;10.816;2022-09-30T07:12:15;21.10;50.20
32753;DHT22;19121;52.428;10.816;2022-09-30T07:14:41;21.10;50.20
32753;DHT22;19121;52.428;10.816;2022-09-30T07:17:07;21.20;50.30
32753;DHT22;19121;52.428;10.816;2022-09-30T07:19:32;21.30;50.30
32753;DHT22;19121;52.428;10.816;2022-09-30T07:21:59;21.30;50.40
32753;DHT22;19121;52.428;10.816;2022-09-30T07:24:45;21.30;50.20
32753;DHT22;19121;52.428;10.816;2022-09-30T07:27:10;21.40;50.20
32753;DHT22;19121;52.428;10.816;2022-09-30T07:29:38;21.40;50.10
32753;DHT22;19121;52.428;10.816;2022-09-30T07:32:05;21.40;50.10
32753;DHT22;19121;52.428;10.816;2022-09-30T07:34:30;21.50;50.20
32753;DHT22;19121;52.428;10.816;2022-09-30T07:36:56;21.50;50.00
32753;DHT22;19121;52.428;10.816;2022-09-30T07:39:21;21.60;50.10
32753;DHT22;19121;52.428;10.816;2022-09-30T07:41:47;21.60;50.00
32753;DHT22;19121;52.428;10.816;2022-09-30T07:44:13;21.60;50.00
32753;DHT22;19121;52.428;10.816;2022-09-30T07:46:39;21.60;50.00
32753;DHT22;19121;52.428;10.816;2022-09-30T07:49:07;21.70;50.00
32753;DHT22;19121;52.428;10.816;2022-09-30T07:51:38;21.80;50.00
32753;DHT22;19121;52.428;10.816;2022-09-30T07:54:08;21.80;49.90
32753;DHT22;19121;52.428;10.816;2022-09-30T07:56:35;21.80;49.80
32753;DHT22;19121;52.428;10.816;2022-09-30T07:59:03;21.90;49.80
32753;DHT22;19121;52.428;10.816;2022-09-30T08:01:29;21.90;49.80
32753;DHT22;19121;52.428;10.816;2022-09-30T08:03:58;21.90;49.80
32753;DHT22;19121;52.428;10.816;2022-09-30T08:06:26;21.90;49.70
32753;DHT22;19121;52.428;10.816;2022-09-30T08:08:53;22.00;49.70
32753;DHT22;19121;52.428;10.816;2022-09-30T08:11:19;22.00;49.60
32753;DHT22;19121;52.428;10.816;2022-09-30T08:13:52;22.00;49.50
32753;DHT22;19121;52.428;10.816;2022-09-30T08:16:19;22.00;49.50
32753;DHT22;19121;52.428;10.816;2022-09-30T08:18:45;22.00;49.50
32753;DHT22;19121;52.428;10.816;2022-09-30T08:21:10;22.10;49.60
32753;DHT22;19121;52.428;10.816;2022-09-30T08:23:36;22.10;49.50
32753;DHT22;19121;52.428;10.816;2022-09-30T08:26:09;22.10;49.40
32753;DHT22;19121;52.428;10.816;2022-09-30T08:28:36;22.10;49.30
32753;DHT22;19121;52.428;10.816;2022-09-30T08:31:08;22.10;49.20
32753;DHT22;19121;52.428;10.816;2022-09-30T08:33:34;22.20;49.20
32753;DHT22;19121;52.428;10.816;2022-09-30T08:36:08;22.20;49.20
32753;DHT22;19121;52.428;10.816;2022-09-30T08:38:34;22.20;49.10
32753;DHT22;19121;52.428;10.816;2022-09-30T08:44:05;22.20;49.00
32753;DHT22;19121;52.428;10.816;2022-09-30T08:46:45;22.20;49.10
32753;DHT22;19121;52.428;10.816;2022-09-30T08:49:33;22.20;49.10
32753;DHT22;19121;52.428;10.816;2022-09-30T08:52:03;22.20;49.00
32753;DHT22;19121;52.428;10.816;2022-09-30T08:54:33;22.20;49.20
32753;DHT22;19121;52.428;10.816;2022-09-30T08:57:01;22.30;49.40
32753;DHT22;19121;52.428;10.816;2022-09-30T08:59:41;22.30;49.50
32753;DHT22;19121;52.428;10.816;2022-09-30T09:02:15;22.30;49.50
32753;DHT22;19121;52.428;10.816;2022-09-30T09:04:43;22.40;49.70
32753;DHT22;19121;52.428;10.816;2022-09-30T09:07:24;22.40;49.80
32753;DHT22;19121;52.428;10.816;2022-09-30T09:10:16;22.40;49.80
32753;DHT22;19121;52.428;10.816;2022-09-30T09:15:44;22.50;49.90
32753;DHT22;19121;52.428;10.816;2022-09-30T09:18:34;22.50;49.90
32753;DHT22;19121;52.428;10.816;2022-09-30T09:21:22;22.50;49.80
32753;DHT22;19121;52.428;10.816;2022-09-30T09:23:55;22.50;49.60
32753;DHT22;19121;52.428;10.816;2022-09-30T09:26:23;22.60;49.50
32753;DHT22;19121;52.428;10.816;2022-09-30T09:29:05;22.60;49.40
32753;DHT22;19121;52.428;10.816;2022-09-30T09:31:33;22.60;49.50
32753;DHT22;19121;52.428;10.816;2022-09-30T09:34:06;22.60;49.70
32753;DHT22;19121;52.428;10.816;2022-09-30T09:36:58;22.60;49.60
32753;DHT22;19121;52.428;10.816;2022-09-30T09:42:27;22.60;49.50
32753;DHT22;19121;52.428;10.816;2022-09-30T09:45:29;22.50;49.50
32753;DHT22;19121;52.428;10.816;2022-09-30T09:47:59;22.60;50.00
32753;DHT22;19121;52.428;10.816;2022-09-30T09:50:56;22.50;50.40
32753;DHT22;19121;52.428;10.816;2022-09-30T09:53:43;22.50;50.50
32753;DHT22;19121;52.428;10.816;2022-09-30T09:56:19;22.50;50.60
32753;DHT22;19121;52.428;10.816;2022-09-30T09:59:07;22.50;50.50
32753;DHT22;19121;52.428;10.816;2022-09-30T10:01:36;22.50;50.30
32753;DHT22;19121;52.428;10.816;2022-09-30T10:06:48;22.50;50.20
32753;DHT22;19121;52.428;10.816;2022-09-30T10:09:25;22.50;50.20
32753;DHT22;19121;52.428;10.816;2022-09-30T10:15:01;22.50;50.90
32753;DHT22;19121;52.428;10.816;2022-09-30T10:17:34;22.50;50.90
32753;DHT22;19121;52.428;10.816;2022-09-30T10:22:39;22.50;51.00
32753;DHT22;19121;52.428;10.816;2022-09-30T10:27:57;22.40;51.10
32753;DHT22;19121;52.428;10.816;2022-09-30T10:30:54;22.50;51.20
32753;DHT22;19121;52.428;10.816;2022-09-30T10:33:29;22.50;51.30
32753;DHT22;19121;52.428;10.816;2022-09-30T10:38:27;22.50;51.20
32753;DHT22;19121;52.428;10.816;2022-09-30T10:40:54;22.50;51.10
32753;DHT22;19121;52.428;10.816;2022-09-30T10:43:24;22.50;51.30
32753;DHT22;19121;52.428;10.816;2022-09-30T10:45:51;22.50;51.30
32753;DHT22;19121;52.428;10.816;2022-09-30T10:48:19;22.50;51.30
32753;DHT22;19121;52.428;10.816;2022-09-30T10:50:51;22.50;51.30
32753;DHT22;19121;52.428;10.816;2022-09-30T10:53:23;22.40;51.40
32753;DHT22;19121;52.428;10.816;2022-09-30T10:55:49;22.50;51.50
32753;DHT22;19121;52.428;10.816;2022-09-30T10:58:39;22.50;51.70
32753;DHT22;19121;52.428;10.816;2022-09-30T11:01:16;22.50;51.70
32753;DHT22;19121;52.428;10.816;2022-09-30T11:04:08;22.50;51.80
32753;DHT22;19121;52.428;10.816;2022-09-30T11:06:39;22.40;51.50
32753;DHT22;19121;52.428;10.816;2022-09-30T11:09:12;22.40;51.70
32753;DHT22;19121;52.428;10.816;2022-09-30T11:11:56;22.40;51.70
32753;DHT22;19121;52.428;10.816;2022-09-30T11:14:33;22.30;51.90
32753;DHT22;19121;52.428;10.816;2022-09-30T11:17:09;22.30;52.00
32753;DHT22;19121;52.428;10.816;2022-09-30T11:19:50;22.30;52.10
32753;DHT22;19121;52.428;10.816;2022-09-30T11:22:41;22.30;52.20
32753;DHT22;19121;52.428;10.816;2022-09-30T11:25:11;22.30;51.80
32753;DHT22;19121;52.428;10.816;2022-09-30T11:27:48;22.30;51.90
32753;DHT22;19121;52.428;10.816;2022-09-30T11:30:20;22.30;51.80
32753;DHT22;19121;52.428;10.816;2022-09-30T11:36:02;22.30;51.80
32753;DHT22;19121;52.428;10.816;2022-09-30T11:41:22;22.30;52.00
32753;DHT22;19121;52.428;10.816;2022-09-30T11:44:30;22.30;52.30
32753;DHT22;19121;52.428;10.816;2022-09-30T11:50:02;22.30;52.40
32753;DHT22;19121;52.428;10.816;2022-09-30T11:52:48;22.30;52.50
32753;DHT22;19121;52.428;10.816;2022-09-30T11:55:50;22.30;52.40
32753;DHT22;19121;52.428;10.816;2022-09-30T11:58:20;22.30;52.40
32753;DHT22;19121;52.428;10.816;2022-09-30T12:00:54;22.30;52.20
32753;DHT22;19121;52.428;10.816;2022-09-30T12:03:32;22.30;52.30
32753;DHT22;19121;52.428;10.816;2022-09-30T12:06:12;22.30;52.20
32753;DHT22;19121;52.428;10.816;2022-09-30T12:08:43;22.30;52.20
32753;DHT22;19121;52.428;10.816;2022-09-30T12:11:20;22.30;51.90
32753;DHT22;19121;52.428;10.816;2022-09-30T12:13:51;22.30;51.70
32753;DHT22;19121;52.428;10.816;2022-09-30T12:16:23;22.30;51.60
32753;DHT22;19121;52.428;10.816;2022-09-30T12:18:55;22.30;51.50
32753;DHT22;19121;52.428;10.816;2022-09-30T12:21:28;22.30;51.50
32753;DHT22;19121;52.428;10.816;2022-09-30T12:24:23;22.30;51.70
32753;DHT22;19121;52.428;10.816;2022-09-30T12:26:50;22.20;51.70
32753;DHT22;19121;52.428;10.816;2022-09-30T12:29:30;22.20;51.80
32753;DHT22;19121;52.428;10.816;2022-09-30T12:32:35;22.20;51.80
32753;DHT22;19121;52.428;10.816;2022-09-30T12:35:37;22.30;51.90
32753;DHT22;19121;52.428;10.816;2022-09-30T12:38:29;22.30;51.90
32753;DHT22;19121;52.428;10.816;2022-09-30T12:44:11;22.20;52.10
32753;DHT22;19121;52.428;10.816;2022-09-30T12:49:43;22.20;52.10
32753;DHT22;19121;52.428;10.816;2022-09-30T12:52:14;22.20;52.10
32753;DHT22;19121;52.428;10.816;2022-09-30T12:54:42;22.20;51.90
32753;DHT22;19121;52.428;10.816;2022-09-30T12:57:08;22.20;52.00
32753;DHT22;19121;52.428;10.816;2022-09-30T12:59:37;22.20;52.10
32753;DHT22;19121;52.428;10.816;2022-09-30T13:02:04;22.20;52.20
32753;DHT22;19121;52.428;10.816;2022-09-30T13:04:34;22.20;52.00
32753;DHT22;19121;52.428;10.816;2022-09-30T13:09:36;22.20;51.60
32753;DHT22;19121;52.428;10.816;2022-09-30T13:14:33;22.20;51.90
32753;DHT22;19121;52.428;10.816;2022-09-30T13:19:46;22.20;52.00
32753;DHT22;19121;52.428;10.816;2022-09-30T13:32:40;22.20;52.00
32753;DHT22;19121;52.428;10.816;2022-09-30T13:40:46;22.10;52.40
32753;DHT22;19121;52.428;10.816;2022-09-30T13:43:26;22.10;52.70
32753;DHT22;19121;52.428;10.816;2022-09-30T13:45:55;22.10;52.60
32753;DHT22;19121;52.428;10.816;2022-09-30T13:48:27;22.10;52.50
32753;DHT22;19121;52.428;10.816;2022-09-30T13:50:55;22.20;52.50
32753;DHT22;19121;52.428;10.816;2022-09-30T13:53:28;22.10;52.90
32753;DHT22;19121;52.428;10.816;2022-09-30T13:55:56;22.10;52.60
32753;DHT22;19121;52.428;10.816;2022-09-30T14:01:24;22.10;52.90
32753;DHT22;19121;52.428;10.816;2022-09-30T14:04:00;22.10;52.80
32753;DHT22;19121;52.428;10.816;2022-09-30T14:09:46;22.10;52.10
32753;DHT22;19121;52.428;10.816;2022-09-30T14:12:48;22.10;51.70
32753;DHT22;19121;52.428;10.816;2022-09-30T14:18:23;22.10;51.60
32753;DHT22;19121;52.428;10.816;2022-09-30T14:23:40;22.00;51.40
32753;DHT22;19121;52.428;10.816;2022-09-30T14:26:35;22.00;51.50
32753;DHT22;19121;52.428;10.816;2022-09-30T14:29:25;22.00;51.50
32753;DHT22;19121;52.428;10.816;2022-09-30T14:31:53;22.00;51.50
32753;DHT22;19121;52.428;10.816;2022-09-30T14:34:21;22.00;51.60
32753;DHT22;19121;52.428;10.816;2022-09-30T14:36:47;22.00;51.60
32753;DHT22;19121;52.428;10.816;2022-09-30T14:39:19;21.90;51.60
32753;DHT22;19121;52.428;10.816;2022-09-30T14:41:52;21.90;51.50
32753;DHT22;19121;52.428;10.816;2022-09-30T14:44:20;21.90;51.60
32753;DHT22;19121;52.428;10.816;2022-09-30T14:46:48;21.90;52.10
32753;DHT22;19121;52.428;10.816;2022-09-30T14:49:20;21.90;52.60
32753;DHT22;19121;52.428;10.816;2022-09-30T14:51:52;21.90;52.50
32753;DHT22;19121;52.428;10.816;2022-09-30T14:54:20;21.90;52.40
32753;DHT22;19121;52.428;10.816;2022-09-30T14:56:48;21.90;52.50
32753;DHT22;19121;52.428;10.816;2022-09-30T14:59:19;21.80;52.30
32753;DHT22;19121;52.428;10.816;2022-09-30T15:01:49;21.80;52.00
32753;DHT22;19121;52.428;10.816;2022-09-30T15:04:18;21.90;51.90
32753;DHT22;19121;52.428;10.816;2022-09-30T15:06:47;21.80;51.80
32753;DHT22;19121;52.428;10.816;2022-09-30T15:09:46;21.80;51.80
32753;DHT22;19121;52.428;10.816;2022-09-30T15:12:13;21.80;51.80
32753;DHT22;19121;52.428;10.816;2022-09-30T15:14:51;21.80;51.80
32753;DHT22;19121;52.428;10.816;2022-09-30T15:17:25;21.80;52.40
32753;DHT22;19121;52.428;10.816;2022-09-30T15:19:54;21.80;51.80
32753;DHT22;19121;52.428;10.816;2022-09-30T15:22:22;21.80;51.80
32753;DHT22;19121;52.428;10.816;2022-09-30T15:24:49;21.80;52.40
32753;DHT22;19121;52.428;10.816;2022-09-30T15:27:21;21.80;51.80
32753;DHT22;19121;52.428;10.816;2022-09-30T15:29:58;21.70;51.70
32753;DHT22;19121;52.428;10.816;2022-09-30T15:32:30;21.80;51.80
32753;DHT22;19121;52.428;10.816;2022-09-30T15:35:02;21.70;51.70
32753;DHT22;19121;52.428;10.816;2022-09-30T15:37:29;21.70;51.70
32753;DHT22;19121;52.428;10.816;2022-09-30T15:39:58;21.70;51.70
32753;DHT22;19121;52.428;10.816;2022-09-30T15:42:53;21.70;51.70
32753;DHT22;19121;52.428;10.816;2022-09-30T15:45:38;21.70;51.70
32753;DHT22;19121;52.428;10.816;2022-09-30T15:48:20;21.70;51.70
32753;DHT22;19121;52.428;10.816;2022-09-30T15:50:54;21.70;51.80
32753;DHT22;19121;52.428;10.816;2022-09-30T15:53:31;21.70;51.80
32753;DHT22;19121;52.428;10.816;2022-09-30T16:11:44;21.70;51.80
32753;DHT22;19121;52.428;10.816;2022-09-30T16:14:20;21.60;51.70
32753;DHT22;19121;52.428;10.816;2022-09-30T16:16:50;21.60;51.70
32753;DHT22;19121;52.428;10.816;2022-09-30T16:19:17;21.60;51.70
32753;DHT22;19121;52.428;10.816;2022-09-30T16:21:45;21.60;51.70
32753;DHT22;19121;52.428;10.816;2022-09-30T16:26:54;21.60;51.80
32753;DHT22;19121;52.428;10.816;2022-09-30T16:29:20;21.60;51.80
32753;DHT22;19121;52.428;10.816;2022-09-30T16:31:48;21.50;51.70
32753;DHT22;19121;52.428;10.816;2022-09-30T16:34:22;21.50;51.70
32753;DHT22;19121;52.428;10.816;2022-09-30T16:36:49;21.50;51.70
32753;DHT22;19121;52.428;10.816;2022-09-30T16:39:14;21.50;51.70
32753;DHT22;19121;52.428;10.816;2022-09-30T16:41:41;21.50;51.80
32753;DHT22;19121;52.428;10.816;2022-09-30T16:44:07;21.50;51.70
32753;DHT22;19121;52.428;10.816;2022-09-30T16:46:33;21.50;51.80
32753;DHT22;19121;52.428;10.816;2022-09-30T16:48:59;21.50;52.40
32753;DHT22;19121;52.428;10.816;2022-09-30T16:51:30;21.50;51.80
32753;DHT22;19121;52.428;10.816;2022-09-30T16:53:56;21.50;51.80
32753;DHT22;19121;52.428;10.816;2022-09-30T16:56:22;21.40;51.70
32753;DHT22;19121;52.428;10.816;2022-09-30T16:58:47;21.40;51.70
32753;DHT22;19121;52.428;10.816;2022-09-30T17:01:18;21.40;51.70
32753;DHT22;19121;52.428;10.816;2022-09-30T17:03:44;21.40;51.80
32753;DHT22;19121;52.428;10.816;2022-09-30T17:06:11;21.40;51.70
32753;DHT22;19121;52.428;10.816;2022-09-30T17:08:36;21.40;51.70
32753;DHT22;19121;52.428;10.816;2022-09-30T17:11:02;21.40;51.80
32753;DHT22;19121;52.428;10.816;2022-09-30T17:13:27;21.40;51.80
32753;DHT22;19121;52.428;10.816;2022-09-30T17:15:54;21.40;51.80
32753;DHT22;19121;52.428;10.816;2022-09-30T17:18:20;21.40;51.70
32753;DHT22;19121;52.428;10.816;2022-09-30T17:20:46;21.30;51.70
32753;DHT22;19121;52.428;10.816;2022-09-30T17:23:17;21.40;51.80
32753;DHT22;19121;52.428;10.816;2022-09-30T17:25:42;21.30;51.80
32753;DHT22;19121;52.428;10.816;2022-09-30T17:28:09;21.30;51.80
32753;DHT22;19121;52.428;10.816;2022-09-30T17:30:35;21.30;51.80
32753;DHT22;19121;52.428;10.816;2022-09-30T17:33:03;21.30;51.80
32753;DHT22;19121;52.428;10.816;2022-09-30T17:35:29;21.30;51.80
32753;DHT22;19121;52.428;10.816;2022-09-30T17:37:55;21.30;51.80
32753;DHT22;19121;52.428;10.816;2022-09-30T17:40:20;21.30;51.80